Time;durP1;ratioP1;P1;durP2;ratioP2;P2;SDS_P1;SDS_P2;PMS_P1;PMS_P2;Temp;Humidity;BMP_temperature;BMP_pressure;BME280_temperature;BME280_humidity;BME280_pressure;Samples;Min_cycle;Max_cycle;Signal;HPM_P1;HPM_P2
2023/11/12 00:00:55;;;;;;;5.15;4.15;;;6.20;99.90;;;;;;5034553;28;20057;-91
2023/11/12 00:03:21;;;;;;;5.60;3.63;;;6.10;99.90;;;;;;5036035;28;20025;-91
2023/11/12 00:05:50;;;;;;;3.70;3.22;;;6.10;99.90;;;;;;5034918;28;20026;-89
2023/11/12 00:08:18;;;;;;;3.00;2.67;;;6.20;99.90;;;;;;5034873;28;20032;-89
2023/11/12 00:10:44;;;;;;;4.63;3.97;;;6.20;99.90;;;;;;5034811;28;20068;-88
2023/11/12 00:13:10;;;;;;;3.55;2.72;;;6.20;99.90;;;;;;5034135;28;20036;-89
2023/11/12 00:15:35;;;;;;;5.55;3.22;;;6.20;99.90;;;;;;5034297;28;20038;-90
2023/11/12 00:18:01;;;;;;;4.20;2.28;;;6.30;99.90;;;;;;5033253;28;20025;-90
2023/11/12 00:20:28;;;;;;;5.32;3.75;;;6.30;99.90;;;;;;5033847;28;20026;-89
2023/11/12 00:22:54;;;;;;;4.28;3.25;;;6.30;99.90;;;;;;5033358;28;20581;-90
2023/11/12 00:25:20;;;;;;;4.97;2.95;;;6.30;99.90;;;;;;5033892;28;20022;-90
2023/11/12 00:27:45;;;;;;;3.17;2.85;;;6.30;99.90;;;;;;5033862;28;20395;-90
2023/11/12 00:30:11;;;;;;;5.30;3.90;;;6.30;99.90;;;;;;5033530;28;20057;-90
2023/11/12 00:32:37;;;;;;;6.03;2.92;;;6.30;99.90;;;;;;5034165;28;20035;-90
2023/11/12 00:35:05;;;;;;;4.55;2.78;;;6.30;99.90;;;;;;5034022;28;20032;-90
2023/11/12 00:37:30;;;;;;;3.60;3.25;;;6.30;99.90;;;;;;5034694;28;20030;-89
2023/11/12 00:39:56;;;;;;;4.97;2.95;;;6.30;99.90;;;;;;5034430;28;20373;-89
2023/11/12 00:42:21;;;;;;;3.15;2.80;;;6.30;99.90;;;;;;5030123;28;20029;-89
2023/11/12 00:44:47;;;;;;;5.07;3.35;;;6.40;99.90;;;;;;5033347;28;20033;-89
2023/11/12 00:47:12;;;;;;;2.88;2.63;;;6.40;99.90;;;;;;5033688;28;20022;-90
2023/11/12 00:49:38;;;;;;;3.60;3.15;;;6.30;99.90;;;;;;5032535;28;20036;-89
2023/11/12 00:52:05;;;;;;;4.95;3.58;;;6.40;99.90;;;;;;5032360;28;20034;-87
2023/11/12 00:54:33;;;;;;;3.38;3.08;;;6.40;99.90;;;;;;5034219;28;20100;-90
2023/11/12 00:56:59;;;;;;;4.28;2.85;;;6.30;99.90;;;;;;5033348;28;20029;-90
2023/11/12 00:59:24;;;;;;;3.45;3.15;;;6.40;99.90;;;;;;5039885;28;20029;-89
2023/11/12 01:01:53;;;;;;;3.40;3.03;;;6.40;99.90;;;;;;5038759;28;20295;-89
2023/11/12 01:04:19;;;;;;;3.20;2.72;;;6.40;99.90;;;;;;5033741;28;20033;-90
2023/11/12 01:06:45;;;;;;;5.03;2.78;;;6.40;99.90;;;;;;5033721;28;20017;-90
2023/11/12 01:09:11;;;;;;;3.47;2.35;;;6.40;99.90;;;;;;5033407;28;20030;-89
2023/11/12 01:11:37;;;;;;;3.03;2.70;;;6.40;99.90;;;;;;5038534;28;20017;-89
2023/11/12 01:14:03;;;;;;;3.25;2.95;;;6.30;99.90;;;;;;5034856;28;20048;-89
2023/11/12 01:16:29;;;;;;;2.53;2.33;;;6.30;99.90;;;;;;5034268;28;20496;-89
2023/11/12 01:18:58;;;;;;;2.50;1.95;;;6.30;99.90;;;;;;5033929;28;20018;-90
2023/11/12 01:21:25;;;;;;;3.45;2.72;;;6.30;99.90;;;;;;5034603;28;20017;-90
2023/11/12 01:23:50;;;;;;;3.13;2.80;;;6.30;99.90;;;;;;5043065;28;20558;-91
2023/11/12 01:26:16;;;;;;;3.00;1.92;;;6.30;99.90;;;;;;5026917;28;20025;-87
2023/11/12 01:28:42;;;;;;;3.67;2.42;;;6.30;99.90;;;;;;5033613;28;20025;-90
2023/11/12 01:31:08;;;;;;;3.22;2.33;;;6.30;99.90;;;;;;5042296;28;20052;-87
2023/11/12 01:33:34;;;;;;;4.32;2.97;;;6.40;99.90;;;;;;5043990;28;20022;-90
2023/11/12 01:36:00;;;;;;;2.70;1.70;;;6.40;99.90;;;;;;5038639;28;20025;-90
2023/11/12 01:38:26;;;;;;;6.03;2.22;;;6.40;99.90;;;;;;5037687;28;20099;-91
2023/11/12 01:40:52;;;;;;;6.85;3.60;;;6.40;99.90;;;;;;5027251;28;20029;-89
2023/11/12 01:43:19;;;;;;;4.50;3.20;;;6.40;99.90;;;;;;5033399;28;20021;-89
2023/11/12 01:45:44;;;;;;;2.72;2.53;;;6.40;99.90;;;;;;5044673;28;20040;-91
2023/11/12 01:48:13;;;;;;;4.05;2.05;;;6.40;99.90;;;;;;5036017;28;20478;-88
2023/11/12 01:50:41;;;;;;;3.15;2.38;;;6.40;99.90;;;;;;5037592;28;20036;-87
2023/11/12 01:53:07;;;;;;;2.83;2.60;;;6.50;99.90;;;;;;5038212;28;20029;-88
2023/11/12 01:55:33;;;;;;;2.20;2.00;;;6.40;99.90;;;;;;5038685;28;20526;-90
2023/11/12 01:58:00;;;;;;;3.42;2.40;;;6.40;99.90;;;;;;5042547;28;20029;-89
2023/11/12 02:00:29;;;;;;;2.33;2.13;;;6.40;99.90;;;;;;5038182;28;20033;-88
2023/11/12 02:02:56;;;;;;;4.07;2.83;;;6.40;99.90;;;;;;5037050;28;20025;-90
2023/11/12 02:05:27;;;;;;;3.38;3.05;;;6.40;99.90;;;;;;5036244;28;20025;-90
2023/11/12 02:07:56;;;;;;;3.30;1.92;;;6.40;99.90;;;;;;5036383;28;20021;-89
2023/11/12 02:10:22;;;;;;;2.55;2.25;;;6.50;99.90;;;;;;5048399;28;20104;-91
2023/11/12 02:12:48;;;;;;;6.25;2.45;;;6.50;99.90;;;;;;5041141;28;20041;-90
2023/11/12 02:15:17;;;;;;;3.40;2.05;;;6.50;99.90;;;;;;5036799;28;20040;-91
2023/11/12 02:17:43;;;;;;;3.80;2.70;;;6.40;99.90;;;;;;5045766;28;20090;-90
2023/11/12 02:20:10;;;;;;;4.75;2.95;;;6.40;99.90;;;;;;5046044;28;20021;-88
2023/11/12 02:22:37;;;;;;;4.03;2.40;;;6.40;99.90;;;;;;5039058;28;20057;-90
2023/11/12 02:25:04;;;;;;;4.05;2.80;;;6.30;99.90;;;;;;5037389;28;20025;-90
2023/11/12 02:27:31;;;;;;;3.53;2.45;;;6.30;99.90;;;;;;5038146;28;20553;-90
2023/11/12 02:29:56;;;;;;;2.83;2.15;;;6.30;99.90;;;;;;5037190;28;20475;-90
2023/11/12 02:32:23;;;;;;;3.85;2.95;;;6.20;99.90;;;;;;5038451;28;20029;-89
2023/11/12 02:34:48;;;;;;;6.75;2.40;;;6.10;99.90;;;;;;5039190;28;20017;-92
2023/11/12 02:37:14;;;;;;;4.10;2.58;;;6.10;99.90;;;;;;5044453;28;20438;-87
2023/11/12 02:39:43;;;;;;;2.90;2.17;;;6.00;99.90;;;;;;5040784;28;20025;-89
2023/11/12 02:42:09;;;;;;;4.75;2.08;;;6.00;99.90;;;;;;5039226;28;20483;-90
2023/11/12 02:44:37;;;;;;;2.70;2.50;;;5.90;99.90;;;;;;5044305;28;20032;-88
2023/11/12 02:47:04;;;;;;;4.07;2.53;;;5.80;99.90;;;;;;5040046;28;20100;-89
2023/11/12 02:49:55;;;;;;;3.10;2.45;;;5.70;99.90;;;;;;5045240;28;20040;-89
2023/11/12 02:52:21;;;;;;;3.80;2.63;;;5.70;99.90;;;;;;5038536;28;20057;-89
2023/11/12 02:54:47;;;;;;;3.70;3.38;;;5.70;99.90;;;;;;5046337;28;20052;-90
2023/11/12 02:57:12;;;;;;;4.00;2.92;;;5.70;99.90;;;;;;5043594;28;20017;-87
2023/11/12 02:59:39;;;;;;;3.20;2.35;;;5.70;99.90;;;;;;5042345;28;20052;-90
2023/11/12 03:02:05;;;;;;;3.47;3.10;;;5.60;99.90;;;;;;5037202;28;20044;-90
2023/11/12 03:04:30;;;;;;;2.67;2.22;;;5.60;99.90;;;;;;5035023;28;20042;-90
2023/11/12 03:06:56;;;;;;;2.45;2.22;;;5.50;99.90;;;;;;5037195;28;20029;-89
2023/11/12 03:09:24;;;;;;;2.10;1.90;;;5.40;99.90;;;;;;5037828;28;20083;-89
2023/11/12 03:11:50;;;;;;;2.90;2.38;;;5.30;99.90;;;;;;5038915;28;20025;-89
2023/11/12 03:14:18;;;;;;;4.28;2.53;;;5.20;99.90;;;;;;5038854;28;20021;-90
2023/11/12 03:16:46;;;;;;;3.92;2.42;;;5.20;99.90;;;;;;5046060;28;20084;-90
2023/11/12 03:19:12;;;;;;;4.38;2.88;;;5.20;99.90;;;;;;5036673;28;20025;-88
2023/11/12 03:21:37;;;;;;;2.28;2.08;;;5.10;99.90;;;;;;5039256;28;20476;-89
2023/11/12 03:24:03;;;;;;;2.28;1.88;;;5.10;99.90;;;;;;5036822;28;20075;-90
2023/11/12 03:26:29;;;;;;;3.22;2.35;;;5.10;99.90;;;;;;5035292;28;20036;-89
2023/11/12 03:28:55;;;;;;;2.78;2.42;;;5.10;99.90;;;;;;5035531;28;20025;-90
2023/11/12 03:31:20;;;;;;;2.90;2.22;;;5.00;99.90;;;;;;5035417;28;20017;-89
2023/11/12 03:33:46;;;;;;;2.80;2.50;;;5.00;99.90;;;;;;5024437;28;20496;-90
2023/11/12 03:36:15;;;;;;;2.72;2.17;;;5.00;99.90;;;;;;5026987;28;20085;-90
2023/11/12 03:38:42;;;;;;;2.40;1.85;;;5.00;99.90;;;;;;5035350;28;20021;-89
2023/11/12 03:41:11;;;;;;;3.92;2.45;;;4.90;99.90;;;;;;5034733;28;20104;-89
2023/11/12 03:43:37;;;;;;;2.60;2.13;;;4.90;99.90;;;;;;5032091;28;20025;-89
2023/11/12 03:46:03;;;;;;;3.65;2.55;;;4.90;99.90;;;;;;5036508;28;20099;-88
2023/11/12 03:48:28;;;;;;;4.50;3.03;;;4.90;99.90;;;;;;5035858;28;20029;-89
2023/11/12 03:50:54;;;;;;;4.45;3.38;;;4.90;99.90;;;;;;5035633;28;20041;-89
2023/11/12 03:53:20;;;;;;;3.45;2.70;;;5.00;99.90;;;;;;5035070;28;20408;-90
2023/11/12 03:55:45;;;;;;;3.25;2.95;;;5.00;99.90;;;;;;5033729;28;20105;-89
2023/11/12 03:58:11;;;;;;;3.25;2.72;;;5.00;99.90;;;;;;5033641;28;20034;-90
2023/11/12 04:00:37;;;;;;;5.15;3.03;;;4.90;99.90;;;;;;5033726;28;20030;-90
2023/11/12 04:03:05;;;;;;;2.50;2.30;;;5.00;99.90;;;;;;5033397;28;20033;-89
2023/11/12 04:05:31;;;;;;;2.60;2.40;;;4.90;99.90;;;;;;5033718;28;20571;-89
2023/11/12 04:07:56;;;;;;;2.65;2.33;;;4.90;99.90;;;;;;5032857;28;20097;-89
2023/11/12 04:10:22;;;;;;;3.28;2.80;;;4.80;99.90;;;;;;5034075;28;20021;-87
2023/11/12 04:12:47;;;;;;;3.45;2.65;;;4.80;99.90;;;;;;5035239;28;20029;-90
2023/11/12 04:15:13;;;;;;;4.00;2.20;;;4.80;99.90;;;;;;5036015;28;20502;-90
2023/11/12 04:17:39;;;;;;;2.83;2.55;;;4.70;99.90;;;;;;5034874;28;20033;-90
2023/11/12 04:20:06;;;;;;;3.63;3.25;;;4.80;99.90;;;;;;5042694;28;20033;-87
2023/11/12 04:22:32;;;;;;;3.55;3.03;;;4.70;99.90;;;;;;5035163;28;20025;-89
2023/11/12 04:24:58;;;;;;;3.25;2.30;;;4.70;99.90;;;;;;5035257;28;20026;-90
2023/11/12 04:27:27;;;;;;;2.90;2.65;;;4.60;99.90;;;;;;5035018;28;20035;-88
2023/11/12 04:29:52;;;;;;;2.53;2.08;;;4.60;99.90;;;;;;5029292;28;20029;-91
2023/11/12 04:32:18;;;;;;;3.15;2.05;;;4.60;99.90;;;;;;5035408;28;20026;-90
2023/11/12 04:34:44;;;;;;;3.38;2.28;;;4.60;99.90;;;;;;5035996;28;20025;-89
2023/11/12 04:37:10;;;;;;;3.38;2.58;;;4.50;99.90;;;;;;5034310;28;20029;-88
2023/11/12 04:39:36;;;;;;;2.45;2.22;;;4.50;99.90;;;;;;5034688;28;20036;-88
2023/11/12 04:42:01;;;;;;;4.18;2.50;;;4.50;99.90;;;;;;5031581;28;20097;-90
2023/11/12 04:44:27;;;;;;;2.45;2.22;;;4.40;99.90;;;;;;5033230;28;20032;-89
2023/11/12 04:46:56;;;;;;;3.67;2.58;;;4.40;99.90;;;;;;5034509;28;20039;-89
2023/11/12 04:49:22;;;;;;;3.72;3.10;;;4.40;99.90;;;;;;5033915;28;20072;-88
2023/11/12 04:51:47;;;;;;;2.97;2.45;;;4.40;99.90;;;;;;5042234;28;20029;-89
2023/11/12 04:54:13;;;;;;;3.13;2.45;;;4.30;99.90;;;;;;5033851;28;20021;-88
2023/11/12 04:56:48;;;;;;;3.05;2.50;;;4.20;99.90;;;;;;5037513;28;20466;-89
2023/11/12 04:59:13;;;;;;;2.55;2.35;;;4.20;99.90;;;;;;5034248;28;20115;-90
2023/11/12 05:01:43;;;;;;;3.25;2.15;;;4.20;99.90;;;;;;5033958;28;20021;-89
2023/11/12 05:04:08;;;;;;;3.67;2.25;;;4.10;99.90;;;;;;5033289;28;20398;-89
2023/11/12 05:06:37;;;;;;;3.05;2.75;;;4.10;99.90;;;;;;5034656;28;20017;-90
2023/11/12 05:09:03;;;;;;;3.33;2.85;;;4.10;99.90;;;;;;5046200;28;20032;-90
2023/11/12 05:11:31;;;;;;;2.58;2.38;;;4.10;99.90;;;;;;5057571;28;20423;-90
2023/11/12 05:13:57;;;;;;;2.83;2.22;;;4.10;99.90;;;;;;5066082;28;20025;-92
2023/11/12 05:16:22;;;;;;;2.70;2.38;;;4.00;99.90;;;;;;5057076;28;20014;-90
2023/11/12 05:18:48;;;;;;;2.65;2.45;;;4.00;99.90;;;;;;5052209;28;20029;-88
2023/11/12 05:21:13;;;;;;;2.72;2.05;;;4.00;99.90;;;;;;5043285;28;20373;-89
2023/11/12 05:23:39;;;;;;;3.35;2.55;;;3.90;99.90;;;;;;5038239;28;20594;-90
2023/11/12 05:26:05;;;;;;;3.17;2.22;;;3.90;99.90;;;;;;5027935;28;20026;-89
2023/11/12 05:28:31;;;;;;;3.55;2.47;;;3.90;99.90;;;;;;5033336;28;20125;-90
2023/11/12 05:30:56;;;;;;;4.43;2.40;;;3.90;99.90;;;;;;5045923;28;20108;-90
2023/11/12 05:33:22;;;;;;;3.72;2.95;;;3.90;99.90;;;;;;5039336;28;20026;-89
2023/11/12 05:35:48;;;;;;;3.97;3.67;;;4.00;99.90;;;;;;5037612;28;20036;-89
2023/11/12 05:38:14;;;;;;;2.78;2.58;;;4.00;99.90;;;;;;5037873;28;20033;-89
2023/11/12 05:40:40;;;;;;;4.50;3.45;;;3.90;99.90;;;;;;5037606;28;20056;-88
2023/11/12 05:43:07;;;;;;;5.30;4.80;;;4.00;99.90;;;;;;5041669;28;20025;-89
2023/11/12 05:45:32;;;;;;;3.25;2.95;;;3.90;99.90;;;;;;5037922;28;20022;-89
2023/11/12 05:47:58;;;;;;;3.90;3.20;;;3.80;99.90;;;;;;5036863;28;20037;-89
2023/11/12 05:50:24;;;;;;;4.00;2.97;;;3.70;99.90;;;;;;5044333;28;20060;-89
2023/11/12 05:52:51;;;;;;;3.35;2.75;;;3.70;99.90;;;;;;5036636;28;20041;-90
2023/11/12 05:55:17;;;;;;;4.25;3.15;;;3.70;99.90;;;;;;5036724;28;20154;-90
2023/11/12 05:57:43;;;;;;;3.03;2.15;;;3.70;99.90;;;;;;5051804;28;20060;-90
2023/11/12 06:00:10;;;;;;;3.03;2.67;;;3.70;99.90;;;;;;5048851;28;20113;-89
2023/11/12 06:02:39;;;;;;;3.08;2.78;;;3.70;99.90;;;;;;5037033;28;20030;-89
2023/11/12 06:05:06;;;;;;;3.95;2.67;;;3.70;99.90;;;;;;5046265;28;20653;-88
2023/11/12 06:07:32;;;;;;;14.63;3.72;;;3.70;99.90;;;;;;5037502;28;20026;-90
2023/11/12 06:09:59;;;;;;;11.77;3.63;;;3.60;99.90;;;;;;5037453;28;20044;-90
2023/11/12 06:12:25;;;;;;;5.45;2.78;;;3.60;99.90;;;;;;5037965;28;20029;-90
2023/11/12 06:14:50;;;;;;;6.78;3.67;;;3.60;99.90;;;;;;5036864;28;20104;-89
2023/11/12 06:17:16;;;;;;;9.52;3.55;;;3.60;99.90;;;;;;5037217;28;20079;-89
2023/11/12 06:19:42;;;;;;;9.02;5.97;;;3.60;99.90;;;;;;5044430;28;20076;-88
2023/11/12 06:22:07;;;;;;;9.73;3.10;;;3.60;99.90;;;;;;5027633;28;20026;-89
2023/11/12 06:24:33;;;;;;;12.10;4.45;;;3.70;99.90;;;;;;5031166;28;20098;-90
2023/11/12 06:26:58;;;;;;;9.60;4.65;;;3.70;99.90;;;;;;5038630;28;20036;-89
2023/11/12 06:29:24;;;;;;;6.57;4.10;;;3.70;99.90;;;;;;5043452;28;20021;-89
2023/11/12 06:31:51;;;;;;;6.90;4.07;;;3.70;99.90;;;;;;5038410;28;20026;-91
2023/11/12 06:34:17;;;;;;;6.60;3.78;;;3.80;99.90;;;;;;5037829;28;20022;-90
2023/11/12 06:36:43;;;;;;;33.20;6.57;;;3.70;99.90;;;;;;5037735;28;20033;-88
2023/11/12 06:39:13;;;;;;;9.80;5.70;;;3.70;99.90;;;;;;5036398;28;20369;-89
2023/11/12 06:41:40;;;;;;;12.50;4.47;;;3.80;99.90;;;;;;5043120;28;20028;-88
2023/11/12 06:44:05;;;;;;;7.97;5.05;;;3.80;99.90;;;;;;5040799;28;20025;-90
2023/11/12 06:46:31;;;;;;;4.75;4.10;;;3.70;99.90;;;;;;5040898;28;20021;-90
2023/11/12 06:48:57;;;;;;;8.43;4.70;;;3.80;99.90;;;;;;5036291;28;20033;-90
2023/11/12 06:51:24;;;;;;;5.88;3.95;;;3.90;99.90;;;;;;5036755;28;20025;-89
2023/11/12 06:53:50;;;;;;;8.43;4.70;;;3.90;99.90;;;;;;5036084;28;20032;-89
2023/11/12 06:56:15;;;;;;;6.70;5.32;;;3.90;99.90;;;;;;5039416;28;20024;-89
2023/11/12 06:58:41;;;;;;;9.68;5.18;;;4.00;99.90;;;;;;5036620;28;20044;-90
2023/11/12 07:01:09;;;;;;;8.13;4.55;;;4.00;99.90;;;;;;5037021;28;20507;-89
2023/11/12 07:03:35;;;;;;;8.05;5.32;;;4.00;99.90;;;;;;5045422;28;20018;-87
2023/11/12 07:06:00;;;;;;;7.68;5.88;;;4.00;99.90;;;;;;5037290;28;20022;-89
2023/11/12 07:08:27;;;;;;;8.10;5.65;;;4.00;99.90;;;;;;5045704;28;20095;-90
2023/11/12 07:10:53;;;;;;;10.63;8.35;;;4.10;99.90;;;;;;5037257;28;20018;-90
2023/11/12 07:13:19;;;;;;;12.88;9.48;;;4.10;99.90;;;;;;5035891;28;20510;-90
2023/11/12 07:15:45;;;;;;;10.00;7.88;;;4.10;99.90;;;;;;5035880;28;20045;-90
2023/11/12 07:18:11;;;;;;;11.95;8.35;;;4.10;99.90;;;;;;5042198;28;20030;-89
2023/11/12 07:20:37;;;;;;;11.95;8.88;;;4.20;99.90;;;;;;5036642;28;20116;-89
2023/11/12 07:23:06;;;;;;;14.93;12.05;;;4.10;99.90;;;;;;5035681;28;20018;-89
2023/11/12 07:25:32;;;;;;;17.67;12.70;;;4.20;99.90;;;;;;5039273;28;20027;-87
2023/11/12 07:27:58;;;;;;;12.80;9.13;;;4.20;99.90;;;;;;5037278;28;20070;-89
2023/11/12 07:30:24;;;;;;;11.93;9.20;;;4.20;99.90;;;;;;5034827;28;20030;-87
2023/11/12 07:32:49;;;;;;;10.85;8.00;;;4.20;99.90;;;;;;5034479;28;20025;-90
2023/11/12 07:35:15;;;;;;;11.07;7.63;;;4.30;99.90;;;;;;5035262;28;20028;-90
2023/11/12 07:37:41;;;;;;;11.82;7.53;;;4.40;99.90;;;;;;5034710;28;20029;-88
2023/11/12 07:40:11;;;;;;;10.45;7.43;;;4.40;99.90;;;;;;5042729;28;20144;-88
2023/11/12 07:42:40;;;;;;;9.90;6.15;;;4.50;99.90;;;;;;5041279;28;20077;-89
2023/11/12 07:45:08;;;;;;;8.70;6.53;;;4.60;99.90;;;;;;5041593;28;20024;-90
2023/11/12 07:47:40;;;;;;;9.15;6.78;;;4.60;99.90;;;;;;5032938;28;20063;-90
2023/11/12 07:50:07;;;;;;;10.85;6.18;;;4.60;99.90;;;;;;5033020;28;20037;-88
2023/11/12 07:52:33;;;;;;;8.05;5.80;;;4.70;99.90;;;;;;5033126;28;20025;-91
2023/11/12 07:54:59;;;;;;;10.98;8.20;;;4.70;99.90;;;;;;5033609;28;20089;-89
2023/11/12 07:57:24;;;;;;;7.15;4.57;;;4.70;99.90;;;;;;5033624;28;20018;-90
2023/11/12 07:59:51;;;;;;;8.38;6.05;;;4.70;99.90;;;;;;5034832;28;20076;-88
2023/11/12 08:02:17;;;;;;;9.82;7.50;;;4.70;99.90;;;;;;5035044;28;20025;-88
2023/11/12 08:04:43;;;;;;;11.65;8.50;;;4.70;99.90;;;;;;5035870;28;20017;-89
2023/11/12 08:07:09;;;;;;;10.23;6.80;;;4.70;99.90;;;;;;5043392;28;20044;-90
2023/11/12 08:09:39;;;;;;;10.18;7.28;;;4.80;99.90;;;;;;5034508;28;20114;-89
2023/11/12 08:12:05;;;;;;;9.00;6.50;;;4.80;99.90;;;;;;5034134;28;20030;-89
2023/11/12 08:14:31;;;;;;;7.90;6.65;;;4.90;99.90;;;;;;5033318;28;20029;-89
2023/11/12 08:16:57;;;;;;;9.57;8.40;;;5.00;99.90;;;;;;5032009;28;20032;-87
2023/11/12 08:19:22;;;;;;;8.05;6.43;;;5.00;99.90;;;;;;5038713;28;20063;-87
2023/11/12 08:21:48;;;;;;;11.02;7.65;;;5.10;99.90;;;;;;5038191;28;20029;-89
2023/11/12 08:24:14;;;;;;;12.02;7.88;;;5.10;99.90;;;;;;5033379;28;20035;-89
2023/11/12 08:26:40;;;;;;;10.05;8.65;;;5.20;99.90;;;;;;5033947;28;20388;-89
2023/11/12 08:29:09;;;;;;;7.22;6.07;;;5.30;99.90;;;;;;5032611;28;20026;-89
2023/11/12 08:31:36;;;;;;;12.90;9.77;;;5.30;99.90;;;;;;5034209;28;20028;-90
2023/11/12 08:34:03;;;;;;;8.50;6.75;;;5.40;99.90;;;;;;5031890;28;20060;-89
2023/11/12 08:36:29;;;;;;;9.65;7.43;;;5.50;99.90;;;;;;5038546;28;20106;-90
2023/11/12 08:38:58;;;;;;;10.20;6.82;;;5.60;99.90;;;;;;5034855;28;20075;-89
2023/11/12 08:41:24;;;;;;;6.93;5.65;;;5.60;99.90;;;;;;5031404;28;20130;-89
2023/11/12 08:43:50;;;;;;;6.35;5.75;;;5.70;99.90;;;;;;5030076;28;20037;-89
2023/11/12 08:46:17;;;;;;;6.40;5.70;;;5.80;99.90;;;;;;5033596;28;20023;-89
2023/11/12 08:48:45;;;;;;;5.22;4.55;;;5.80;99.90;;;;;;5042312;28;20040;-89
2023/11/12 08:51:15;;;;;;;5.78;4.45;;;5.90;99.90;;;;;;5040028;28;20036;-86
2023/11/12 08:53:41;;;;;;;6.88;5.55;;;6.00;99.90;;;;;;5031603;28;20577;-90
2023/11/12 08:56:07;;;;;;;6.93;5.55;;;6.10;99.90;;;;;;5031188;28;20026;-89
2023/11/12 08:58:34;;;;;;;8.25;7.43;;;6.10;99.90;;;;;;5028190;28;20496;-90
2023/11/12 09:01:04;;;;;;;12.55;10.57;;;6.10;99.90;;;;;;5031037;28;20029;-91
2023/11/12 09:03:31;;;;;;;9.70;8.70;;;6.20;99.90;;;;;;5031652;28;20117;-89
2023/11/12 09:05:57;;;;;;;10.18;8.30;;;6.20;99.90;;;;;;5032223;28;20021;-89
2023/11/12 09:08:22;;;;;;;8.07;6.60;;;6.30;99.90;;;;;;5030460;28;20033;-89
2023/11/12 09:10:48;;;;;;;6.90;5.28;;;6.30;99.90;;;;;;5022697;28;20041;-90
2023/11/12 09:13:14;;;;;;;6.55;5.22;;;6.40;99.90;;;;;;5027602;28;20033;-89
2023/11/12 09:15:42;;;;;;;6.40;5.20;;;6.40;99.90;;;;;;5032743;28;20046;-90
2023/11/12 09:18:12;;;;;;;5.60;4.13;;;6.40;99.90;;;;;;5043106;28;20032;-90
2023/11/12 09:20:37;;;;;;;5.90;4.60;;;6.60;99.90;;;;;;5035154;28;20029;-87
2023/11/12 09:23:03;;;;;;;5.93;4.80;;;6.70;99.90;;;;;;5042268;28;20121;-90
2023/11/12 09:25:29;;;;;;;6.70;4.47;;;6.80;99.90;;;;;;5034599;28;20086;-89
2023/11/12 09:27:55;;;;;;;5.68;5.07;;;6.90;99.90;;;;;;5032374;28;20041;-88
2023/11/12 09:30:22;;;;;;;7.50;5.03;;;6.90;99.90;;;;;;5032948;28;20017;-89
2023/11/12 09:32:47;;;;;;;7.32;4.75;;;6.90;99.90;;;;;;5031606;28;20377;-89
2023/11/12 09:35:14;;;;;;;5.32;4.65;;;6.70;99.90;;;;;;5040927;28;20033;-89
2023/11/12 09:37:41;;;;;;;6.45;4.88;;;6.80;99.90;;;;;;5038846;28;20021;-89
2023/11/12 09:40:10;;;;;;;5.90;4.65;;;6.80;99.90;;;;;;5033008;28;20029;-90
2023/11/12 09:42:39;;;;;;;5.10;3.85;;;6.80;99.90;;;;;;5032391;28;20029;-90
2023/11/12 09:45:07;;;;;;;5.80;5.20;;;6.90;99.90;;;;;;5033110;28;20476;-89
2023/11/12 09:47:36;;;;;;;3.03;2.65;;;6.90;99.90;;;;;;5032580;28;20057;-89
2023/11/12 09:50:04;;;;;;;4.32;3.85;;;7.00;99.90;;;;;;5033373;28;20030;-89
2023/11/12 09:52:30;;;;;;;;;;;7.00;99.90;;;;;;5032602;28;20038;-89
2023/11/12 09:54:58;;;;;;;4.07;3.65;;;7.00;99.90;;;;;;5034946;28;19944;-89
2023/11/12 09:57:24;;;;;;;4.00;3.00;;;7.00;99.90;;;;;;5037505;28;20052;-88
2023/11/12 09:59:51;;;;;;;4.82;2.65;;;7.10;99.90;;;;;;5036871;28;20026;-91
2023/11/12 10:02:19;;;;;;;2.67;2.45;;;7.00;99.90;;;;;;5036381;28;20540;-90
2023/11/12 10:04:58;;;;;;;4.80;3.17;;;7.00;99.90;;;;;;5036969;28;20666;-87
2023/11/12 10:07:27;;;;;;;3.72;3.00;;;7.10;99.90;;;;;;5028789;28;20025;-90
2023/11/12 10:09:56;;;;;;;3.67;2.97;;;7.20;99.90;;;;;;5024111;28;20025;-89
2023/11/12 10:12:22;;;;;;;5.10;3.67;;;7.30;99.90;;;;;;5035740;28;20091;-89
2023/11/12 10:15:04;;;;;;;6.13;3.75;;;7.30;99.90;;;;;;5036929;28;20423;-90
2023/11/12 10:17:29;;;;;;;4.60;4.03;;;7.40;99.90;;;;;;5022235;28;20107;-90
2023/11/12 10:19:56;;;;;;;4.45;3.85;;;7.20;99.90;;;;;;5035958;28;20025;-90
2023/11/12 10:22:38;;;;;;;4.07;3.13;;;7.30;99.90;;;;;;5040106;28;20082;-89
2023/11/12 10:25:04;;;;;;;4.00;3.33;;;7.30;99.90;;;;;;5038108;28;20036;-89
2023/11/12 10:27:29;;;;;;;4.50;2.80;;;7.30;99.90;;;;;;5035528;28;20052;-89
2023/11/12 10:29:55;;;;;;;4.57;2.95;;;7.40;99.90;;;;;;5034523;28;20033;-90
2023/11/12 10:32:27;;;;;;;3.83;2.95;;;7.40;99.90;;;;;;5039359;28;20044;-90
2023/11/12 10:34:55;;;;;;;4.43;2.78;;;7.40;99.90;;;;;;5048575;28;20100;-89
2023/11/12 10:37:21;;;;;;;;;;;7.40;99.90;;;;;;5034124;28;20025;-88
2023/11/12 10:39:47;;;;;;;3.88;2.90;;;7.50;99.90;;;;;;5034737;28;19928;-90
2023/11/12 10:42:20;;;;;;;5.85;3.47;;;7.60;99.90;;;;;;5029294;28;20030;-89
2023/11/12 10:44:54;;;;;;;3.10;2.70;;;7.60;99.90;;;;;;5034875;28;20100;-90
2023/11/12 10:47:23;;;;;;;6.82;3.22;;;7.70;99.90;;;;;;5034481;28;20033;-89
2023/11/12 10:49:50;;;;;;;4.57;3.58;;;7.70;99.90;;;;;;5032863;28;20415;-87
2023/11/12 10:52:16;;;;;;;21.17;9.70;;;7.60;99.90;;;;;;5034893;28;20108;-90
2023/11/12 10:54:44;;;;;;;4.82;3.90;;;7.70;99.90;;;;;;5034417;28;20383;-90
2023/11/12 10:57:11;;;;;;;5.60;3.80;;;7.70;99.90;;;;;;5030732;28;20021;-91
2023/11/12 10:59:40;;;;;;;7.32;3.90;;;7.70;99.90;;;;;;5035363;28;20021;-90
2023/11/12 11:02:16;;;;;;;3.28;2.25;;;7.70;99.90;;;;;;5038598;28;20021;-90
2023/11/12 11:04:45;;;;;;;3.60;3.30;;;7.70;99.50;;;;;;5030477;28;20017;-90
2023/11/12 11:07:11;;;;;;;4.85;3.22;;;7.70;99.00;;;;;;5034872;28;20021;-89
2023/11/12 11:09:37;;;;;;;2.97;2.28;;;7.70;99.90;;;;;;5040104;28;20033;-89
2023/11/12 11:12:03;;;;;;;4.25;3.72;;;7.70;99.90;;;;;;5049206;28;20125;-90
2023/11/12 11:14:29;;;;;;;4.15;3.15;;;7.60;99.90;;;;;;5047703;28;20021;-90
2023/11/12 11:16:55;;;;;;;5.82;3.13;;;7.60;99.90;;;;;;5047113;28;20081;-91
2023/11/12 11:19:43;;;;;;;4.68;2.75;;;7.60;99.90;;;;;;5059197;28;20024;-89
2023/11/12 11:22:34;;;;;;;3.83;2.88;;;7.60;99.90;;;;;;5040081;28;20439;-90
2023/11/12 11:25:20;;;;;;;5.95;2.75;;;7.60;99.90;;;;;;5036043;28;20026;-89
2023/11/12 11:27:51;;;;;;;4.50;2.33;;;7.70;99.90;;;;;;5039912;28;20491;-90
2023/11/12 11:30:19;;;;;;;6.45;4.57;;;7.70;99.90;;;;;;5026069;28;20025;-89
2023/11/12 11:32:54;;;;;;;;;;;7.80;99.90;;;;;;5033750;28;20029;-90
2023/11/12 11:35:27;;;;;;;4.03;3.65;;;7.90;99.90;;;;;;5032823;28;19996;-90
2023/11/12 11:38:12;;;;;;;4.68;3.42;;;7.80;99.90;;;;;;5034079;28;20178;-88
2023/11/12 11:40:39;;;;;;;5.68;4.60;;;7.80;99.90;;;;;;5032881;28;20574;-90
2023/11/12 11:43:23;;;;;;;6.03;4.28;;;8.00;99.90;;;;;;5029713;28;20029;-90
2023/11/12 11:46:15;;;;;;;5.07;3.10;;;8.00;99.70;;;;;;5033625;28;20044;-90
2023/11/12 11:48:43;;;;;;;4.60;3.38;;;8.00;99.80;;;;;;5028245;28;20033;-89
2023/11/12 11:51:27;;;;;;;6.18;4.05;;;8.10;99.90;;;;;;5033138;28;20064;-88
2023/11/12 11:53:54;;;;;;;4.03;3.50;;;8.10;99.90;;;;;;5031363;28;20021;-91
2023/11/12 11:56:26;;;;;;;5.75;3.40;;;8.20;99.90;;;;;;5033455;28;20037;-91
2023/11/12 11:58:52;;;;;;;4.43;3.40;;;8.30;99.80;;;;;;5027912;28;20026;-89
2023/11/12 12:01:18;;;;;;;4.85;3.92;;;8.40;98.40;;;;;;5033253;28;20021;-90
2023/11/12 12:03:44;;;;;;;6.82;3.53;;;8.50;97.60;;;;;;5045842;28;20060;-90
2023/11/12 12:06:19;;;;;;;3.65;3.17;;;8.60;96.60;;;;;;5032704;28;20145;-88
2023/11/12 12:08:52;;;;;;;6.30;2.92;;;8.50;96.20;;;;;;5033429;28;20052;-90
2023/11/12 12:11:24;;;;;;;3.85;3.45;;;8.50;96.50;;;;;;5033066;28;20029;-92
2023/11/12 12:13:59;;;;;;;3.75;3.03;;;8.50;96.00;;;;;;5033072;28;20035;-91
2023/11/12 12:16:30;;;;;;;5.78;4.35;;;8.70;95.20;;;;;;5031445;28;20026;-89
2023/11/12 12:18:56;;;;;;;4.93;4.25;;;8.80;94.60;;;;;;5042935;28;20107;-90
2023/11/12 12:21:26;;;;;;;4.65;2.75;;;9.00;94.50;;;;;;5047052;28;20022;-90
2023/11/12 12:23:52;;;;;;;4.00;3.08;;;9.00;93.60;;;;;;5033551;28;20395;-90
2023/11/12 12:26:21;;;;;;;4.55;3.58;;;9.00;93.70;;;;;;5024844;28;20108;-88
2023/11/12 12:28:47;;;;;;;7.93;3.67;;;9.20;92.00;;;;;;5033277;28;20499;-90
2023/11/12 12:31:13;;;;;;;7.32;4.28;;;9.10;92.50;;;;;;5031595;28;20037;-89
2023/11/12 12:33:38;;;;;;;5.45;3.05;;;9.10;91.40;;;;;;5032805;28;20021;-88
2023/11/12 12:36:13;;;;;;;5.82;3.40;;;9.00;91.40;;;;;;5033152;28;20028;-88
2023/11/12 12:38:55;;;;;;;4.82;3.78;;;9.00;92.30;;;;;;5034110;28;20036;-89
2023/11/12 12:41:20;;;;;;;6.07;3.55;;;9.00;92.60;;;;;;5036192;28;20029;-90
2023/11/12 12:43:50;;;;;;;6.70;3.95;;;9.00;92.10;;;;;;5042433;28;20396;-90
2023/11/12 12:46:16;;;;;;;6.07;4.13;;;9.00;93.00;;;;;;5033897;28;20056;-90
2023/11/12 12:48:52;;;;;;;8.55;3.95;;;8.80;93.00;;;;;;5032537;28;20026;-90
2023/11/12 12:51:19;;;;;;;4.22;3.15;;;8.80;93.80;;;;;;5032223;28;20029;-90
2023/11/12 12:53:48;;;;;;;5.63;3.20;;;8.70;94.10;;;;;;5031959;28;20037;-89
2023/11/12 12:56:14;;;;;;;4.60;3.33;;;8.60;94.50;;;;;;5020544;28;20048;-90
2023/11/12 12:58:46;;;;;;;6.68;4.30;;;8.70;95.60;;;;;;5037269;28;20036;-90